Time;durP1;ratioP1;P1;durP2;ratioP2;P2;SDS_P1;SDS_P2;PMS_P1;PMS_P2;Temp;Humidity;BMP_temperature;BMP_pressure;BME280_temperature;BME280_humidity;BME280_pressure;Samples;Min_cycle;Max_cycle;Signal;HPM_P1;HPM_P2
2024/03/10 00:00:14;;;;;;;9.73;6.93;;;10.70;70.80;;;;;;4988789;28;20565;-74
2024/03/10 00:03:04;;;;;;;9.67;6.50;;;10.70;69.90;;;;;;4989205;28;20568;-74
2024/03/10 00:05:51;;;;;;;10.13;6.70;;;10.70;70.60;;;;;;4989282;28;20492;-75
2024/03/10 00:08:40;;;;;;;8.87;6.77;;;10.60;71.50;;;;;;4989814;28;20480;-74
2024/03/10 00:11:26;;;;;;;10.83;7.17;;;10.60;71.90;;;;;;4989373;28;20933;-75
2024/03/10 00:14:12;;;;;;;9.70;6.93;;;10.50;72.50;;;;;;4986981;28;20995;-75
2024/03/10 00:16:58;;;;;;;8.77;5.77;;;10.50;72.80;;;;;;4989742;28;20468;-74
2024/03/10 00:19:44;;;;;;;10.10;6.80;;;10.40;74.20;;;;;;4991625;28;20484;-74
2024/03/10 00:22:29;;;;;;;12.50;6.50;;;10.40;74.50;;;;;;4998305;28;20456;-74
2024/03/10 00:25:16;;;;;;;13.10;7.57;;;10.30;74.10;;;;;;4993344;28;20468;-73
2024/03/10 00:28:03;;;;;;;9.40;6.00;;;10.30;72.50;;;;;;4991686;28;20474;-74
2024/03/10 00:30:49;;;;;;;9.60;6.20;;;10.30;73.50;;;;;;4992660;28;20500;-74
2024/03/10 00:33:34;;;;;;;9.90;7.30;;;10.40;71.50;;;;;;4995838;28;20437;-73
2024/03/10 00:36:20;;;;;;;11.30;5.90;;;10.40;70.80;;;;;;4995578;28;20458;-73
2024/03/10 00:39:06;;;;;;;9.37;5.83;;;10.50;70.70;;;;;;4992411;28;20437;-74
2024/03/10 00:41:53;;;;;;;11.00;7.23;;;10.50;71.20;;;;;;4988256;28;20465;-75
2024/03/10 00:44:38;;;;;;;9.43;6.50;;;10.50;71.60;;;;;;4988198;28;20454;-74
2024/03/10 00:47:24;;;;;;;9.50;6.20;;;10.50;72.60;;;;;;4987264;28;21241;-74
2024/03/10 00:50:10;;;;;;;8.57;6.20;;;10.40;73.00;;;;;;4991161;28;20438;-74
2024/03/10 00:52:56;;;;;;;7.47;5.50;;;10.40;73.60;;;;;;4992263;28;20454;-74
2024/03/10 00:55:43;;;;;;;10.40;6.60;;;10.30;74.30;;;;;;4990345;28;20452;-74
2024/03/10 00:58:30;;;;;;;9.10;6.57;;;10.20;75.40;;;;;;4991865;28;20421;-73
2024/03/10 01:01:16;;;;;;;10.50;6.20;;;10.10;75.80;;;;;;4987962;28;20886;-74
2024/03/10 01:04:03;;;;;;;8.77;6.17;;;10.00;77.70;;;;;;4984125;28;20667;-72
2024/03/10 01:06:49;;;;;;;9.60;7.37;;;10.00;78.40;;;;;;4989762;28;20471;-72
2024/03/10 01:09:35;;;;;;;9.77;6.37;;;9.90;79.20;;;;;;4997024;28;20487;-71
2024/03/10 01:12:21;;;;;;;8.90;6.83;;;9.80;81.50;;;;;;4991621;28;20448;-72
2024/03/10 01:15:10;;;;;;;8.90;5.40;;;9.70;83.20;;;;;;4991360;28;20558;-72
2024/03/10 01:17:55;;;;;;;8.17;6.43;;;9.60;85.30;;;;;;4988922;28;20456;-73
2024/03/10 01:20:41;;;;;;;10.53;6.27;;;9.50;88.40;;;;;;4990298;28;20416;-71
2024/03/10 01:23:27;;;;;;;12.53;6.60;;;9.50;90.90;;;;;;4991544;28;20497;-72
2024/03/10 01:26:12;;;;;;;11.90;6.03;;;9.40;90.90;;;;;;4979844;28;21102;-72
2024/03/10 01:28:58;;;;;;;9.37;5.53;;;9.40;91.00;;;;;;4989596;28;20488;-73
2024/03/10 01:31:46;;;;;;;11.27;6.03;;;9.40;91.70;;;;;;4991096;28;20993;-71
2024/03/10 01:34:32;;;;;;;12.27;7.07;;;9.50;92.30;;;;;;4985604;28;20957;-72
2024/03/10 01:37:17;;;;;;;8.27;5.97;;;9.40;91.90;;;;;;4987891;28;20438;-73
2024/03/10 01:40:04;;;;;;;10.07;5.97;;;9.40;91.80;;;;;;4978391;28;20632;-72
2024/03/10 01:42:54;;;;;;;10.77;5.87;;;9.40;92.90;;;;;;4988695;28;20535;-72
2024/03/10 01:45:40;;;;;;;12.00;6.57;;;9.40;92.90;;;;;;4986137;28;21003;-73
2024/03/10 01:48:27;;;;;;;8.67;6.27;;;9.40;92.30;;;;;;4985275;28;20557;-74
2024/03/10 01:51:14;;;;;;;8.63;5.93;;;9.30;93.00;;;;;;4993117;28;20436;-74
2024/03/10 01:54:01;;;;;;;9.70;6.20;;;9.40;93.70;;;;;;4992184;28;20415;-74
2024/03/10 01:56:49;;;;;;;10.90;6.50;;;9.30;94.80;;;;;;4992996;28;20937;-74
2024/03/10 01:59:35;;;;;;;12.53;6.87;;;9.30;97.20;;;;;;4988526;28;20666;-75
2024/03/10 02:02:22;;;;;;;7.50;5.80;;;9.10;94.20;;;;;;4987143;28;20505;-74
2024/03/10 02:05:10;;;;;;;9.77;5.97;;;9.20;95.50;;;;;;4994353;28;20523;-75
2024/03/10 02:07:56;;;;;;;9.67;5.67;;;9.20;96.40;;;;;;4986896;28;20485;-74
2024/03/10 02:10:46;;;;;;;12.10;6.80;;;9.10;96.80;;;;;;4994159;28;20559;-75
2024/03/10 02:13:32;;;;;;;9.00;6.07;;;9.10;97.40;;;;;;4986754;28;20446;-74
2024/03/10 02:16:17;;;;;;;16.67;7.53;;;9.10;97.50;;;;;;4994365;28;20465;-74
2024/03/10 02:19:04;;;;;;;13.00;6.60;;;9.10;97.30;;;;;;4986672;28;20532;-74
2024/03/10 02:21:50;;;;;;;8.20;5.90;;;9.20;97.80;;;;;;4987317;28;20968;-73
2024/03/10 02:24:43;;;;;;;9.93;6.30;;;9.20;97.20;;;;;;4990244;28;21471;-74
2024/03/10 02:27:33;;;;;;;8.10;5.67;;;9.30;96.50;;;;;;4988372;28;20552;-75
2024/03/10 02:30:29;;;;;;;9.00;6.50;;;9.30;97.20;;;;;;4987815;28;20489;-74
2024/03/10 02:48:44;;;;;;;9.23;7.00;;;9.30;97.80;;;;;;4990307;28;21096;-75
2024/03/10 02:51:30;;;;;;;11.47;7.87;;;9.30;97.20;;;;;;4988605;28;20461;-75
2024/03/10 02:54:15;;;;;;;10.17;6.67;;;9.40;96.60;;;;;;4986851;28;21035;-74
2024/03/10 02:57:01;;;;;;;11.47;7.57;;;9.40;96.20;;;;;;4987189;28;20460;-74
2024/03/10 02:59:49;;;;;;;10.87;7.67;;;9.50;94.10;;;;;;4988378;28;20457;-74
2024/03/10 03:02:34;;;;;;;12.50;8.40;;;9.70;92.80;;;;;;4987611;28;20469;-75
2024/03/10 03:05:21;;;;;;;11.20;7.37;;;9.80;91.90;;;;;;4985502;28;20481;-75
2024/03/10 03:08:08;;;;;;;12.80;7.30;;;9.80;91.00;;;;;;4987019;28;20484;-73
2024/03/10 03:10:53;;;;;;;11.37;6.83;;;10.00;89.10;;;;;;4985425;28;21335;-74
2024/03/10 03:13:39;;;;;;;9.60;6.87;;;10.00;87.00;;;;;;4984373;28;20449;-74
2024/03/10 03:16:26;;;;;;;9.60;7.37;;;10.10;86.80;;;;;;4984331;28;21125;-75
2024/03/10 03:19:13;;;;;;;10.50;7.13;;;10.20;84.90;;;;;;4985424;28;20452;-74
2024/03/10 03:21:58;;;;;;;8.80;6.40;;;10.20;85.30;;;;;;4985384;28;20435;-74
2024/03/10 03:24:44;;;;;;;10.93;7.23;;;10.20;87.00;;;;;;4985873;28;21056;-74
2024/03/10 03:27:30;;;;;;;11.23;6.60;;;10.20;89.40;;;;;;4988346;28;20682;-75
2024/03/10 03:30:17;;;;;;;7.73;6.03;;;10.10;89.10;;;;;;4981831;28;20726;-74
2024/03/10 03:33:05;;;;;;;13.73;7.23;;;10.10;87.30;;;;;;4986484;28;20480;-74
2024/03/10 03:35:50;;;;;;;10.37;7.33;;;10.10;86.10;;;;;;4986492;28;20578;-74
2024/03/10 03:38:37;;;;;;;9.67;6.37;;;10.20;85.70;;;;;;4980973;28;20456;-73
2024/03/10 03:41:23;;;;;;;9.20;5.97;;;10.20;88.70;;;;;;4981714;28;20590;-73
2024/03/10 03:44:09;;;;;;;9.30;6.33;;;10.20;88.50;;;;;;4983370;28;21895;-73
2024/03/10 03:46:54;;;;;;;12.30;7.90;;;10.10;89.20;;;;;;4985456;28;20458;-74
2024/03/10 03:49:43;;;;;;;11.10;7.40;;;10.20;86.90;;;;;;4985681;28;20446;-74
2024/03/10 03:52:29;;;;;;;7.87;6.13;;;10.10;89.20;;;;;;4983386;28;20981;-73
2024/03/10 03:55:14;;;;;;;13.60;8.67;;;10.10;88.10;;;;;;4982863;28;20480;-74
2024/03/10 03:58:01;;;;;;;9.53;7.60;;;10.10;89.20;;;;;;4982883;28;20496;-73
2024/03/10 04:00:46;;;;;;;9.23;6.30;;;10.10;89.00;;;;;;4981347;28;20514;-74
2024/03/10 04:03:32;;;;;;;9.80;7.10;;;10.00;90.20;;;;;;4984883;28;20786;-74
2024/03/10 04:06:20;;;;;;;9.10;6.70;;;9.90;90.80;;;;;;4981460;28;20547;-74
2024/03/10 04:09:05;;;;;;;10.63;6.90;;;9.80;91.20;;;;;;4980105;28;20480;-74
2024/03/10 04:11:51;;;;;;;11.63;7.70;;;9.80;91.80;;;;;;4984541;28;20469;-73
2024/03/10 04:14:38;;;;;;;11.27;7.73;;;9.70;92.50;;;;;;4980738;28;20596;-74
2024/03/10 04:17:23;;;;;;;13.90;7.53;;;9.70;92.20;;;;;;4982481;28;20512;-74
2024/03/10 04:20:12;;;;;;;11.57;7.30;;;9.60;91.70;;;;;;4983424;28;20533;-73
2024/03/10 04:22:59;;;;;;;13.13;7.33;;;9.70;91.60;;;;;;4988767;28;21001;-73
2024/03/10 04:25:45;;;;;;;10.83;7.27;;;9.70;91.60;;;;;;4985096;28;20463;-73
2024/03/10 04:28:30;;;;;;;12.23;7.73;;;9.70;91.40;;;;;;4983957;28;20455;-74
2024/03/10 04:31:18;;;;;;;11.87;7.80;;;9.70;91.00;;;;;;4984009;28;20520;-73
2024/03/10 04:34:04;;;;;;;12.67;7.87;;;9.70;90.40;;;;;;4983876;28;20427;-73
2024/03/10 04:36:50;;;;;;;12.03;7.93;;;9.70;90.10;;;;;;4981862;28;20469;-74
2024/03/10 04:39:37;;;;;;;18.33;8.40;;;9.80;89.80;;;;;;4981578;28;21033;-73
2024/03/10 04:42:23;;;;;;;13.50;9.10;;;9.80;89.80;;;;;;4981153;28;20520;-73
2024/03/10 04:45:11;;;;;;;10.73;7.63;;;9.90;89.10;;;;;;4979190;28;20476;-73
2024/03/10 04:47:56;;;;;;;14.13;8.50;;;9.90;88.60;;;;;;4985053;28;20528;-73
2024/03/10 04:50:42;;;;;;;13.30;7.47;;;9.90;89.00;;;;;;4985103;28;20440;-73
2024/03/10 04:53:28;;;;;;;10.13;7.43;;;9.80;88.50;;;;;;4987246;28;20655;-73
2024/03/10 04:56:15;;;;;;;9.50;7.13;;;9.80;88.70;;;;;;4989210;28;20469;-73
2024/03/10 04:59:00;;;;;;;9.30;6.53;;;9.80;90.00;;;;;;4983800;28;20445;-74
2024/03/10 05:01:46;;;;;;;10.70;7.07;;;9.70;82.70;;;;;;4984498;28;20446;-74
2024/03/10 05:04:32;;;;;;;9.70;6.90;;;9.80;82.70;;;;;;4982791;28;20418;-74
2024/03/10 05:07:17;;;;;;;11.57;8.03;;;9.90;81.30;;;;;;4984474;28;21093;-74
2024/03/10 05:10:03;;;;;;;12.73;8.30;;;9.90;77.80;;;;;;4979512;28;20531;-73
2024/03/10 05:12:50;;;;;;;11.57;7.10;;;10.10;76.80;;;;;;4984598;28;22266;-74
2024/03/10 05:15:36;;;;;;;10.33;7.53;;;10.10;73.90;;;;;;4985863;28;20991;-73
2024/03/10 05:18:22;;;;;;;10.33;7.00;;;10.20;75.90;;;;;;4987291;28;20461;-73
2024/03/10 05:21:08;;;;;;;12.90;8.43;;;10.20;75.30;;;;;;4992022;28;20469;-73
2024/03/10 05:23:54;;;;;;;10.23;7.30;;;10.20;75.40;;;;;;4992130;28;20428;-73
2024/03/10 05:26:40;;;;;;;10.40;7.77;;;10.20;75.90;;;;;;4988021;28;20480;-73
2024/03/10 05:29:27;;;;;;;12.23;8.10;;;10.20;75.90;;;;;;4988986;28;20847;-74
2024/03/10 05:32:12;;;;;;;10.70;7.77;;;10.10;75.10;;;;;;4986182;28;20461;-73
2024/03/10 05:34:58;;;;;;;9.20;7.27;;;10.20;75.90;;;;;;4987866;28;20926;-73
2024/03/10 05:37:44;;;;;;;14.70;8.10;;;10.20;75.40;;;;;;4985742;28;20807;-73
2024/03/10 05:40:29;;;;;;;15.60;8.53;;;10.20;75.90;;;;;;4990033;28;20512;-74
2024/03/10 05:43:15;;;;;;;15.10;8.87;;;10.20;76.80;;;;;;4985574;28;21148;-73
2024/03/10 05:46:02;;;;;;;14.07;9.60;;;10.10;75.90;;;;;;4986129;28;20822;-74
2024/03/10 05:48:48;;;;;;;12.43;9.33;;;10.10;77.50;;;;;;4989049;28;20477;-74
2024/03/10 05:51:34;;;;;;;11.10;8.13;;;10.10;77.60;;;;;;4989508;28;20472;-73
2024/03/10 05:54:21;;;;;;;13.17;8.10;;;10.10;78.20;;;;;;4984522;28;20968;-73
2024/03/10 05:57:06;;;;;;;12.83;9.07;;;10.10;77.70;;;;;;4987424;28;20465;-74
2024/03/10 05:59:52;;;;;;;13.30;8.50;;;10.00;78.40;;;;;;4986685;28;20461;-73
2024/03/10 06:02:39;;;;;;;13.07;8.40;;;10.00;77.60;;;;;;4985387;28;20508;-73
2024/03/10 06:05:25;;;;;;;14.13;8.53;;;9.90;76.50;;;;;;4986078;28;20516;-73
2024/03/10 06:08:11;;;;;;;11.57;8.50;;;9.90;77.20;;;;;;4984759;28;20544;-73
2024/03/10 06:10:57;;;;;;;12.23;8.57;;;9.90;76.50;;;;;;4984542;28;20492;-73
2024/03/10 06:13:43;;;;;;;12.60;8.93;;;9.90;74.40;;;;;;4985920;28;20460;-73
2024/03/10 06:16:29;;;;;;;9.47;6.57;;;10.00;72.90;;;;;;4986172;28;20484;-73
2024/03/10 06:25:27;;;;;;;12.50;7.90;;;10.10;71.70;;;;;;4988761;28;20472;-73
2024/03/10 06:28:13;;;;;;;11.60;8.40;;;10.10;71.60;;;;;;4984332;28;20460;-73
2024/03/10 06:30:59;;;;;;;11.83;8.30;;;10.10;74.90;;;;;;4983430;28;20963;-73
2024/03/10 06:33:45;;;;;;;13.30;8.70;;;10.10;75.80;;;;;;4986174;28;20831;-74
2024/03/10 06:36:34;;;;;;;16.10;9.50;;;10.00;75.80;;;;;;4984551;28;21015;-74
2024/03/10 06:39:20;;;;;;;15.90;8.23;;;10.10;75.80;;;;;;4984439;28;20469;-74
2024/03/10 06:42:07;;;;;;;12.60;7.90;;;10.10;74.80;;;;;;4982460;28;20474;-73
2024/03/10 06:44:53;;;;;;;14.30;8.67;;;10.10;74.70;;;;;;4985182;28;20717;-73
2024/03/10 06:47:39;;;;;;;11.20;7.50;;;10.20;75.10;;;;;;4985806;28;20535;-73
2024/03/10 06:50:24;;;;;;;13.40;8.13;;;10.20;75.90;;;;;;4981603;28;20459;-74
2024/03/10 06:53:11;;;;;;;12.57;8.33;;;10.20;75.20;;;;;;4983636;28;20453;-73
2024/03/10 06:55:58;;;;;;;12.00;8.57;;;10.20;75.90;;;;;;4980604;28;20963;-73
2024/03/10 06:58:44;;;;;;;12.93;8.27;;;10.20;75.90;;;;;;4983181;28;20467;-73
2024/03/10 07:01:30;;;;;;;12.37;9.17;;;10.20;77.60;;;;;;4982376;28;20461;-73
2024/03/10 07:04:16;;;;;;;13.37;9.57;;;10.20;78.40;;;;;;4982448;28;20619;-73
2024/03/10 07:07:02;;;;;;;12.67;9.30;;;10.20;77.80;;;;;;4981629;28;20541;-73
2024/03/10 07:09:50;;;;;;;14.67;9.97;;;10.20;78.30;;;;;;4981019;28;20484;-73
2024/03/10 07:12:35;;;;;;;15.57;9.43;;;10.20;78.10;;;;;;4985653;28;20477;-73
2024/03/10 07:15:22;;;;;;;13.07;9.20;;;10.20;79.50;;;;;;4982575;28;20612;-73
2024/03/10 07:18:07;;;;;;;13.47;9.73;;;10.20;79.40;;;;;;4983850;28;20827;-73
2024/03/10 07:20:53;;;;;;;14.83;10.53;;;10.10;80.40;;;;;;4980568;28;20457;-73
2024/03/10 07:23:40;;;;;;;14.53;9.80;;;10.10;80.30;;;;;;4987925;28;20464;-73
2024/03/10 07:26:27;;;;;;;13.00;9.60;;;10.10;80.80;;;;;;4982492;28;20563;-74
2024/03/10 07:29:12;;;;;;;16.43;9.43;;;10.10;80.80;;;;;;4984545;28;20836;-73
2024/03/10 07:31:58;;;;;;;12.30;9.57;;;10.20;81.00;;;;;;4982789;28;20466;-73
2024/03/10 07:34:44;;;;;;;12.33;9.47;;;10.20;80.20;;;;;;4983287;28;20454;-73
2024/03/10 07:37:30;;;;;;;15.70;11.63;;;10.20;79.90;;;;;;4986927;28;20987;-73
2024/03/10 07:40:19;;;;;;;16.07;10.40;;;10.20;79.70;;;;;;4980653;28;20431;-73
2024/03/10 07:43:06;;;;;;;13.07;9.87;;;10.20;79.30;;;;;;4983798;28;21023;-73
2024/03/10 07:45:52;;;;;;;16.13;10.40;;;10.20;78.60;;;;;;4982485;28;20485;-73
2024/03/10 07:48:37;;;;;;;11.73;9.37;;;10.20;79.30;;;;;;4980440;28;20465;-73
2024/03/10 07:51:26;;;;;;;22.40;9.97;;;10.10;78.80;;;;;;4985772;28;20980;-73
2024/03/10 07:54:12;;;;;;;13.47;9.30;;;10.10;79.60;;;;;;4982543;28;20432;-73
2024/03/10 07:56:58;;;;;;;15.83;10.40;;;10.10;78.20;;;;;;4983890;28;20465;-73
2024/03/10 07:59:45;;;;;;;11.87;8.33;;;10.10;79.40;;;;;;4983028;28;20453;-73
2024/03/10 08:02:31;;;;;;;12.90;8.90;;;10.20;77.00;;;;;;4983947;28;20460;-73
2024/03/10 08:05:18;;;;;;;13.10;9.30;;;10.20;75.90;;;;;;4984076;28;20471;-73
2024/03/10 08:08:04;;;;;;;13.33;10.07;;;10.20;77.80;;;;;;4987886;28;20980;-73
2024/03/10 08:10:50;;;;;;;13.37;9.23;;;10.30;78.20;;;;;;4981521;28;20832;-73
2024/03/10 08:13:35;;;;;;;13.80;9.80;;;10.30;78.60;;;;;;4979172;28;20461;-73
2024/03/10 08:16:22;;;;;;;15.30;10.17;;;10.30;78.50;;;;;;4979127;28;20579;-73
2024/03/10 08:19:08;;;;;;;13.57;9.83;;;10.30;78.00;;;;;;4981128;28;20477;-73
2024/03/10 08:21:54;;;;;;;15.20;10.20;;;10.40;77.90;;;;;;4983852;28;20452;-73
2024/03/10 08:24:39;;;;;;;16.90;11.43;;;10.40;78.70;;;;;;4986706;28;20823;-73
2024/03/10 08:27:25;;;;;;;14.93;10.43;;;10.50;79.30;;;;;;4982930;28;20453;-73
2024/03/10 08:30:14;;;;;;;14.60;10.73;;;10.60;78.60;;;;;;4979333;28;20488;-73
2024/03/10 08:33:01;;;;;;;15.77;10.40;;;10.70;78.60;;;;;;4983164;28;20436;-74
2024/03/10 08:35:47;;;;;;;16.20;11.10;;;10.70;78.30;;;;;;4981196;28;20497;-73
2024/03/10 08:38:34;;;;;;;15.53;9.93;;;10.70;77.30;;;;;;4980304;28;20521;-73
2024/03/10 08:41:19;;;;;;;15.47;10.47;;;10.70;77.30;;;;;;4981201;28;20435;-73
2024/03/10 08:44:06;;;;;;;13.10;9.60;;;10.70;77.80;;;;;;4983984;28;20444;-73
2024/03/10 08:46:52;;;;;;;15.97;10.53;;;10.80;76.40;;;;;;4986969;28;20568;-73
2024/03/10 08:49:39;;;;;;;21.00;12.07;;;10.80;76.40;;;;;;4987484;28;20504;-73
2024/03/10 08:52:24;;;;;;;17.30;11.23;;;10.90;76.00;;;;;;4989191;28;20442;-73
2024/03/10 08:55:13;;;;;;;16.93;11.27;;;10.90;75.40;;;;;;4991629;28;20938;-73
2024/03/10 08:57:59;;;;;;;15.00;10.37;;;11.00;74.90;;;;;;4987058;28;20652;-73
2024/03/10 09:00:45;;;;;;;14.50;10.50;;;11.00;75.20;;;;;;4990406;28;20852;-73
2024/03/10 09:03:30;;;;;;;14.80;11.03;;;11.10;75.10;;;;;;4985884;28;20466;-74
2024/03/10 09:06:18;;;;;;;15.00;11.00;;;11.20;73.90;;;;;;4986268;28;20846;-74
2024/03/10 09:09:04;;;;;;;12.40;9.43;;;11.30;72.20;;;;;;4986999;28;20980;-74
2024/03/10 09:11:51;;;;;;;15.83;11.10;;;11.20;72.40;;;;;;4987706;28;20979;-73
2024/03/10 09:14:37;;;;;;;17.73;10.90;;;11.20;74.70;;;;;;4988258;28;20590;-73
2024/03/10 09:17:23;;;;;;;13.53;10.40;;;11.20;72.90;;;;;;4989050;28;20448;-73
2024/03/10 09:20:13;;;;;;;15.03;11.17;;;11.30;74.60;;;;;;4986038;28;20465;-73
2024/03/10 09:23:01;;;;;;;14.03;11.10;;;11.30;75.70;;;;;;4987436;28;20458;-73
2024/03/10 09:25:46;;;;;;;16.17;11.30;;;11.30;74.90;;;;;;4985407;28;20494;-73
2024/03/10 09:28:32;;;;;;;14.47;10.80;;;11.40;72.30;;;;;;4983648;28;20453;-74
2024/03/10 09:31:17;;;;;;;12.70;10.50;;;11.40;72.30;;;;;;4986081;28;20549;-74
2024/03/10 09:34:04;;;;;;;19.10;11.17;;;11.40;72.20;;;;;;4986126;28;20432;-74
2024/03/10 09:36:49;;;;;;;16.13;10.93;;;11.40;71.60;;;;;;5030635;23;20451;-74
2024/03/10 09:39:37;;;;;;;19.70;11.90;;;11.50;71.50;;;;;;5039586;28;20457;-74
2024/03/10 09:42:23;;;;;;;14.97;11.10;;;11.40;70.70;;;;;;5039917;28;20902;-74
2024/03/10 09:45:16;;;;;;;14.37;11.03;;;11.40;70.80;;;;;;5040413;28;21115;-74
2024/03/10 09:48:09;;;;;;;16.60;11.97;;;11.40;70.30;;;;;;5032707;28;20522;-74
2024/03/10 09:50:56;;;;;;;15.57;11.67;;;11.40;70.70;;;;;;5033568;28;20799;-76
2024/03/10 09:53:41;;;;;;;15.13;11.20;;;11.50;70.60;;;;;;5033891;28;20492;-74
2024/03/10 09:56:29;;;;;;;13.10;10.03;;;11.50;70.00;;;;;;5035686;28;20521;-74
2024/03/10 09:59:20;;;;;;;21.67;12.77;;;11.50;69.80;;;;;;5035208;28;20427;-74
2024/03/10 10:02:13;;;;;;;15.43;12.03;;;11.60;70.50;;;;;;5030867;28;20576;-74
2024/03/10 10:05:03;;;;;;;15.60;12.13;;;11.80;70.10;;;;;;5032338;28;20480;-74
2024/03/10 10:07:49;;;;;;;16.00;11.30;;;12.00;71.50;;;;;;5032809;28;20483;-74
2024/03/10 10:10:36;;;;;;;17.97;11.63;;;12.10;62.80;;;;;;5031547;28;20484;-74
2024/03/10 10:13:23;;;;;;;16.23;10.87;;;12.20;63.20;;;;;;5029332;28;20591;-74
2024/03/10 10:16:10;;;;;;;14.03;10.90;;;12.30;62.40;;;;;;5029663;28;20492;-74
2024/03/10 10:18:55;;;;;;;16.17;11.40;;;12.30;63.10;;;;;;5033703;28;20446;-76
2024/03/10 10:21:41;;;;;;;15.33;11.53;;;12.40;62.40;;;;;;5033460;28;20443;-76
2024/03/10 10:24:26;;;;;;;16.30;12.20;;;12.40;63.90;;;;;;5029213;28;20495;-74
2024/03/10 10:27:13;;;;;;;14.40;10.80;;;12.40;62.90;;;;;;5031449;28;20509;-74
2024/03/10 10:30:00;;;;;;;15.30;11.20;;;12.50;61.90;;;;;;5033597;28;20481;-75
2024/03/10 10:32:47;;;;;;;16.83;11.43;;;12.50;61.00;;;;;;5029340;28;20576;-74
2024/03/10 10:35:34;;;;;;;17.77;12.40;;;12.50;61.00;;;;;;5031873;28;20451;-74
2024/03/10 10:38:20;;;;;;;16.13;12.10;;;12.50;62.70;;;;;;5032024;28;20467;-74
2024/03/10 10:41:07;;;;;;;19.00;11.70;;;12.50;61.50;;;;;;5029321;28;20456;-74
2024/03/10 10:43:53;;;;;;;17.77;12.20;;;12.50;62.30;;;;;;5030122;28;20442;-76
2024/03/10 10:46:41;;;;;;;17.50;12.40;;;12.50;60.70;;;;;;5032228;28;20847;-74
2024/03/10 10:49:28;;;;;;;16.37;12.30;;;12.50;61.30;;;;;;5028570;28;20776;-76
2024/03/10 10:52:14;;;;;;;17.00;11.63;;;12.60;61.30;;;;;;5030391;28;20989;-76
2024/03/10 10:55:01;;;;;;;16.57;12.20;;;12.60;61.30;;;;;;5026665;28;20435;-76
2024/03/10 10:57:47;;;;;;;15.70;11.90;;;12.60;61.10;;;;;;5028557;28;20558;-76
2024/03/10 11:00:33;;;;;;;16.20;11.60;;;12.70;62.20;;;;;;5027274;28;20509;-74
2024/03/10 11:03:24;;;;;;;16.60;11.80;;;12.70;60.30;;;;;;5028547;28;20450;-74
2024/03/10 11:06:30;;;;;;;21.67;12.17;;;12.70;60.00;;;;;;5031652;28;20450;-74
2024/03/10 11:09:27;;;;;;;15.40;11.23;;;12.70;61.00;;;;;;5028917;28;20480;-74
2024/03/10 11:12:21;;;;;;;14.10;11.10;;;12.80;60.60;;;;;;5028868;28;20445;-76
2024/03/10 11:15:08;;;;;;;15.87;11.83;;;12.80;60.70;;;;;;5029805;28;20476;-76
2024/03/10 11:17:55;;;;;;;17.43;12.50;;;12.80;58.80;;;;;;5027535;28;20502;-76
2024/03/10 11:20:44;;;;;;;15.87;11.87;;;12.90;59.00;;;;;;5031336;28;21276;-74
2024/03/10 11:23:37;;;;;;;24.07;11.60;;;12.90;55.30;;;;;;5032474;28;20418;-76
2024/03/10 11:26:25;;;;;;;19.57;12.30;;;12.90;56.20;;;;;;5033427;28;20475;-76
2024/03/10 11:29:27;;;;;;;15.10;11.77;;;13.00;56.50;;;;;;5032381;28;20815;-75
2024/03/10 11:32:35;;;;;;;17.20;12.10;;;13.00;55.60;;;;;;5028784;28;20442;-76
2024/03/10 11:35:22;;;;;;;15.73;11.53;;;13.00;57.30;;;;;;5032299;28;20975;-76
2024/03/10 11:38:10;;;;;;;17.93;11.53;;;13.00;56.90;;;;;;5029756;28;21044;-74
2024/03/10 11:41:07;;;;;;;17.57;12.10;;;13.00;58.00;;;;;;5029286;28;20784;-76
2024/03/10 11:43:53;;;;;;;15.70;11.43;;;13.00;56.80;;;;;;5032157;28;20970;-76
2024/03/10 11:46:39;;;;;;;14.83;11.30;;;13.10;57.30;;;;;;5032401;28;20468;-75
2024/03/10 11:49:26;;;;;;;15.77;11.47;;;13.00;57.00;;;;;;5030874;28;20440;-74
2024/03/10 11:52:15;;;;;;;16.47;11.77;;;13.00;56.30;;;;;;5035674;28;20567;-74
2024/03/10 11:55:10;;;;;;;16.90;11.77;;;13.00;54.50;;;;;;5031624;28;20406;-74
2024/03/10 11:57:56;;;;;;;16.60;11.90;;;13.10;57.00;;;;;;5030589;28;20819;-73
2024/03/10 12:00:42;;;;;;;16.60;11.43;;;13.20;58.90;;;;;;5032171;28;20880;-74
2024/03/10 12:03:28;;;;;;;17.40;11.80;;;13.40;59.50;;;;;;5030200;28;20439;-74
2024/03/10 12:06:14;;;;;;;16.07;12.80;;;13.50;55.10;;;;;;5027869;28;20452;-74
2024/03/10 12:09:01;;;;;;;14.77;11.03;;;13.60;53.20;;;;;;5030411;28;20451;-74
2024/03/10 12:11:50;;;;;;;15.97;11.87;;;13.60;53.20;;;;;;5038382;28;20450;-74
2024/03/10 12:14:38;;;;;;;14.03;11.97;;;13.60;53.20;;;;;;5036284;28;21017;-74
2024/03/10 12:17:24;;;;;;;15.33;10.93;;;13.60;52.70;;;;;;5040599;28;20422;-74
2024/03/10 12:20:12;;;;;;;19.27;13.00;;;13.70;55.60;;;;;;5033213;28;20860;-74
2024/03/10 12:22:58;;;;;;;16.90;12.10;;;13.80;53.00;;;;;;5031877;28;20438;-74
2024/03/10 12:25:44;;;;;;;17.70;12.20;;;14.00;53.60;;;;;;5033313;28;20452;-73
2024/03/10 12:28:31;;;;;;;16.87;11.37;;;14.00;50.30;;;;;;5036760;28;20427;-72
2024/03/10 12:31:19;;;;;;;15.67;11.97;;;14.10;48.70;;;;;;5032182;28;20964;-72
2024/03/10 12:34:04;;;;;;;17.17;12.13;;;14.10;47.00;;;;;;5036840;28;21009;-73
2024/03/10 12:36:51;;;;;;;16.20;11.13;;;14.10;51.00;;;;;;5028271;28;21018;-72
2024/03/10 12:39:36;;;;;;;17.23;12.13;;;14.10;48.20;;;;;;5031777;28;20425;-71
2024/03/10 12:42:22;;;;;;;14.80;11.20;;;14.00;48.00;;;;;;5035969;28;20419;-72
2024/03/10 12:45:10;;;;;;;15.13;11.43;;;14.00;46.90;;;;;;5035144;28;20452;-73
2024/03/10 12:47:56;;;;;;;14.67;11.63;;;14.00;46.00;;;;;;5031404;28;20509;-71
2024/03/10 12:50:42;;;;;;;16.10;13.00;;;14.00;46.90;;;;;;5029694;28;20495;-73
2024/03/10 12:53:28;;;;;;;17.07;12.30;;;14.00;48.70;;;;;;5032855;28;20426;-73
2024/03/10 12:56:13;;;;;;;17.70;11.30;;;14.00;47.50;;;;;;5036965;28;20472;-73
2024/03/10 12:58:59;;;;;;;16.27;10.30;;;14.00;47.40;;;;;;5032913;28;20946;-72
2024/03/10 13:01:46;;;;;;;12.03;9.33;;;14.00;46.90;;;;;;5031377;28;20468;-73
2024/03/10 13:04:32;;;;;;;15.17;11.10;;;14.00;45.50;;;;;;5037428;28;20434;-73
2024/03/10 13:07:18;;;;;;;14.67;10.33;;;13.90;43.90;;;;;;5035501;28;20921;-72
2024/03/10 13:10:07;;;;;;;16.53;12.03;;;13.90;46.80;;;;;;5034931;28;20434;-73
2024/03/10 13:12:53;;;;;;;13.40;10.70;;;13.90;46.20;;;;;;5033469;28;20500;-73
2024/03/10 13:15:40;;;;;;;15.23;10.13;;;13.80;46.80;;;;;;5033003;28;20443;-73
2024/03/10 13:18:27;;;;;;;14.77;10.20;;;13.90;46.20;;;;;;5031737;28;20426;-73
2024/03/10 13:21:13;;;;;;;14.97;10.30;;;13.80;45.10;;;;;;5034369;28;20456;-73
2024/03/10 13:23:58;;;;;;;14.50;9.87;;;13.80;45.80;;;;;;5033752;28;20565;-70
2024/03/10 13:26:44;;;;;;;14.63;10.63;;;13.80;46.80;;;;;;5029856;28;20458;-73
2024/03/10 13:29:30;;;;;;;14.17;9.83;;;13.80;48.00;;;;;;5026938;28;20467;-72
2024/03/10 13:32:16;;;;;;;11.63;9.13;;;13.80;49.70;;;;;;5027191;28;20476;-72
2024/03/10 13:35:03;;;;;;;12.17;9.10;;;13.80;50.20;;;;;;5027045;28;20496;-72
2024/03/10 13:37:49;;;;;;;11.07;8.13;;;13.80;48.60;;;;;;5030531;28;21107;-72
2024/03/10 13:40:35;;;;;;;13.00;9.03;;;13.80;47.90;;;;;;5026888;28;20477;-73
2024/03/10 13:43:21;;;;;;;12.67;8.67;;;13.70;46.60;;;;;;5033655;28;21022;-74
2024/03/10 13:46:07;;;;;;;10.90;8.13;;;13.70;45.00;;;;;;5030615;28;20468;-73
2024/03/10 13:48:52;;;;;;;11.70;8.57;;;13.70;44.30;;;;;;5033539;28;20498;-73
2024/03/10 13:51:46;;;;;;;10.57;8.63;;;13.70;46.70;;;;;;5032548;28;20461;-73
2024/03/10 13:54:32;;;;;;;11.13;8.90;;;13.70;50.20;;;;;;5032605;28;21001;-73
2024/03/10 13:57:20;;;;;;;11.67;8.60;;;13.70;51.00;;;;;;5032842;28;21003;-73
2024/03/10 14:00:12;;;;;;;13.47;10.13;;;13.60;51.70;;;;;;5028712;28;20493;-73
2024/03/10 14:02:58;;;;;;;12.27;8.10;;;13.60;51.40;;;;;;5032661;28;20459;-73
2024/03/10 14:05:44;;;;;;;11.30;9.10;;;13.60;47.70;;;;;;5032742;28;20477;-73
2024/03/10 14:08:33;;;;;;;12.27;9.20;;;13.50;49.00;;;;;;5027839;28;20519;-73
2024/03/10 14:11:19;;;;;;;16.23;8.77;;;13.50;50.50;;;;;;5030368;28;20506;-71
2024/03/10 14:14:06;;;;;;;14.00;7.63;;;13.50;53.10;;;;;;5032749;28;20586;-73
2024/03/10 14:16:52;;;;;;;12.43;8.67;;;13.50;50.60;;;;;;5034021;28;21021;-72
2024/03/10 14:19:38;;;;;;;11.30;8.23;;;13.50;53.50;;;;;;5029269;28;20431;-74
2024/03/10 14:22:25;;;;;;;10.83;7.83;;;13.60;53.60;;;;;;5031884;28;20448;-73
2024/03/10 14:25:12;;;;;;;10.70;8.57;;;13.50;56.60;;;;;;5033472;28;20460;-74
2024/03/10 14:28:00;;;;;;;11.00;8.20;;;13.60;65.30;;;;;;5028849;28;20592;-74
2024/03/10 14:30:46;;;;;;;11.80;8.47;;;13.50;65.50;;;;;;5032346;28;20454;-73
2024/03/10 14:33:33;;;;;;;13.03;9.57;;;13.50;58.60;;;;;;5029554;28;20941;-74
2024/03/10 14:36:19;;;;;;;13.07;9.67;;;13.50;53.10;;;;;;5027123;28;20463;-74
2024/03/10 14:39:05;;;;;;;11.60;8.57;;;13.50;53.90;;;;;;5026890;28;21287;-74